Time;durP1;ratioP1;P1;durP2;ratioP2;P2;SDS_P1;SDS_P2;PMS_P1;PMS_P2;Temp;Humidity;BMP_temperature;BMP_pressure;BME280_temperature;BME280_humidity;BME280_pressure;Samples;Min_cycle;Max_cycle;Signal;HPM_P1;HPM_P2
2021/12/13 08:00:36;;;;;;;40.30;23.52;;;9.20;99.90;;;;;;1444897;26;20050;-87
2021/12/13 08:03:55;;;;;;;;;;;;;;;;;;;;;
2021/12/13 08:06:57;;;;;;;39.72;23.20;;;9.20;99.90;;;;;;4975193;28;20055;-86
2021/12/13 08:09:29;;;;;;;38.25;21.45;;;9.30;99.90;;;;;;4877575;29;20060;-86
2021/12/13 08:11:57;;;;;;;35.88;22.65;;;9.30;99.90;;;;;;4895087;29;20380;-88
2021/12/13 08:14:42;;;;;;;40.40;23.13;;;9.20;99.90;;;;;;4879228;29;20080;-88
2021/12/13 08:17:23;;;;;;;41.25;22.15;;;9.20;99.90;;;;;;4878960;29;20088;-86
2021/12/13 08:20:00;;;;;;;36.65;22.23;;;9.20;99.90;;;;;;4863356;29;20049;-87
2021/12/13 08:33:41;;;;;;;32.78;21.08;;;9.30;99.90;;;;;;4903603;29;20077;-85
2021/12/13 08:36:30;;;;;;;34.55;20.35;;;9.30;99.90;;;;;;4901240;29;20111;-89
2021/12/13 08:39:26;;;;;;;32.13;20.83;;;9.30;99.90;;;;;;4899998;29;20046;-90
2021/12/13 08:42:23;;;;;;;34.22;20.42;;;9.30;99.90;;;;;;4932423;29;20043;-88
2021/12/13 08:45:33;;;;;;;;;;;;;;;;;;;;;
2021/12/13 08:48:33;;;;;;;29.67;19.02;;;9.30;99.90;;;;;;4916207;29;20047;-89
2021/12/13 08:51:07;;;;;;;29.23;18.33;;;9.40;99.90;;;;;;4898591;29;20631;-89
2021/12/13 08:53:39;;;;;;;30.23;19.73;;;9.40;99.90;;;;;;4902809;29;20048;-91
2021/12/13 08:57:16;;;;;;;;;;;;;;;;;;;;;
2021/12/13 09:16:55;;;;;;;29.55;18.08;;;9.40;99.90;;;;;;4918304;29;20044;-86
2021/12/13 09:39:31;;;;;;;;;;;;;;;;;;;;;
2021/12/13 09:42:24;;;;;;;27.73;18.13;;;9.40;99.90;;;;;;4909842;23;20051;-88
2021/12/13 09:45:07;;;;;;;33.35;19.00;;;9.40;99.90;;;;;;4959408;28;20097;-88
2021/12/13 10:09:35;;;;;;;35.45;19.48;;;9.50;99.90;;;;;;4587692;26;20035;-87
2021/12/13 10:20:46;;;;;;;30.90;16.55;;;9.50;99.90;;;;;;5079579;23;20063;-89
2021/12/13 10:23:53;;;;;;;;;;;;;;;;;;;;;
2021/12/13 10:26:40;;;;;;;33.30;17.85;;;9.60;99.90;;;;;;4961674;28;20142;-88
2021/12/13 10:30:00;;;;;;;;;;;;;;;;;;;;;
2021/12/13 10:33:09;;;;;;;;;;;;;;;;;;;;;
2021/12/13 10:36:14;;;;;;;29.02;16.92;;;9.70;99.90;;;;;;4931212;29;20152;-90
2021/12/13 10:39:31;;;;;;;29.67;16.83;;;9.80;99.90;;;;;;4972429;28;20046;-88
2021/12/13 10:42:35;;;;;;;34.00;18.17;;;9.70;99.90;;;;;;4976520;28;20050;-88
2021/12/13 10:46:10;;;;;;;;;;;;;;;;;;;;;
2021/12/13 10:49:25;;;;;;;;;;;;;;;;;;;;;
2021/12/13 10:52:53;;;;;;;30.63;17.15;;;9.80;99.90;;;;;;4973492;28;20082;-88
2021/12/13 10:55:28;;;;;;;30.00;17.45;;;9.70;99.90;;;;;;4880350;29;20052;-87
2021/12/13 10:58:20;;;;;;;31.88;17.25;;;9.70;99.90;;;;;;4880692;29;20124;-88
2021/12/13 11:01:01;;;;;;;33.22;17.10;;;9.70;99.90;;;;;;4888008;29;20052;-89
2021/12/13 11:13:12;;;;;;;31.23;16.60;;;9.80;99.90;;;;;;5606879;23;20065;-88
2021/12/13 11:15:46;;;;;;;29.55;16.38;;;9.80;99.90;;;;;;4995268;28;20104;-87
2021/12/13 11:18:37;;;;;;;;;;;;;;;;;;;;;
2021/12/13 11:21:21;;;;;;;31.52;17.08;;;9.80;99.90;;;;;;4975758;28;20101;-89
2021/12/13 11:23:50;;;;;;;32.65;16.92;;;9.90;99.90;;;;;;4976893;28;20117;-88
2021/12/13 11:29:53;;;;;;;29.73;16.73;;;9.90;99.90;;;;;;4914704;29;20055;-88
2021/12/13 11:32:39;;;;;;;30.25;15.77;;;9.90;99.90;;;;;;4899081;29;20055;-92
2021/12/13 11:35:10;;;;;;;29.50;17.45;;;9.90;99.90;;;;;;4977842;28;20035;-80
2021/12/13 11:37:57;;;;;;;29.92;16.45;;;9.90;99.90;;;;;;4993603;28;20042;-88
2021/12/13 11:40:25;;;;;;;29.42;16.23;;;9.90;99.90;;;;;;4976682;28;20042;-86
2021/12/13 11:43:31;;;;;;;28.05;15.90;;;9.90;99.90;;;;;;4976763;28;20096;-88
2021/12/13 11:46:11;;;;;;;28.00;16.23;;;9.90;99.90;;;;;;4961411;28;20086;-87
2021/12/13 11:48:52;;;;;;;32.05;16.65;;;10.00;99.90;;;;;;4976459;28;20042;-85
2021/12/13 11:51:36;;;;;;;29.73;17.23;;;10.00;99.90;;;;;;4994601;28;20342;-88
2021/12/13 11:54:44;;;;;;;30.45;16.83;;;10.00;99.90;;;;;;4993220;28;20492;-86
2021/12/13 11:57:33;;;;;;;30.00;16.10;;;10.00;99.90;;;;;;4959869;28;20042;-88
2021/12/13 12:00:44;;;;;;;28.70;16.75;;;10.00;99.90;;;;;;4977013;28;20035;-88
2021/12/13 12:03:52;;;;;;;26.80;15.55;;;10.00;99.90;;;;;;4899053;29;20044;-88
2021/12/13 12:06:36;;;;;;;29.42;16.67;;;10.10;99.90;;;;;;4976666;28;20595;-86
2021/12/13 12:09:39;;;;;;;31.13;16.30;;;10.20;99.90;;;;;;4977289;28;20098;-88
2021/12/13 12:12:49;;;;;;;26.38;15.30;;;10.20;99.90;;;;;;4993482;28;20527;-87
2021/12/13 12:15:17;;;;;;;25.95;15.90;;;10.20;99.90;;;;;;4960754;28;20133;-89
2021/12/13 12:17:43;;;;;;;28.33;16.33;;;10.20;99.90;;;;;;4976807;28;20471;-85
2021/12/13 12:20:12;;;;;;;28.73;15.70;;;10.20;99.90;;;;;;4976068;28;20063;-85
2021/12/13 12:22:49;;;;;;;29.08;16.38;;;10.20;99.90;;;;;;4960046;28;20092;-87
2021/12/13 12:25:16;;;;;;;33.90;16.70;;;10.20;99.90;;;;;;4976691;28;20137;-87
2021/12/13 12:27:42;;;;;;;28.98;15.45;;;10.30;99.90;;;;;;4976349;28;20090;-86
2021/12/13 12:30:14;;;;;;;26.90;14.88;;;10.30;99.90;;;;;;4980043;28;20042;-84
2021/12/13 12:32:46;;;;;;;26.13;14.85;;;10.30;99.90;;;;;;4980023;28;20047;-85
2021/12/13 12:35:19;;;;;;;30.10;15.57;;;10.40;99.90;;;;;;4963973;28;20046;-86
2021/12/13 12:38:10;;;;;;;25.55;14.50;;;10.40;99.90;;;;;;4979154;28;20121;-87
2021/12/13 12:41:04;;;;;;;28.33;14.98;;;10.30;99.90;;;;;;4979696;28;20491;-85
2021/12/13 12:43:35;;;;;;;27.95;14.80;;;10.30;99.90;;;;;;4997182;28;20480;-86
2021/12/13 12:46:06;;;;;;;30.50;15.15;;;10.40;99.90;;;;;;4997228;28;20078;-87
2021/12/13 12:48:34;;;;;;;32.67;16.27;;;10.30;99.90;;;;;;4979588;28;20031;-86
2021/12/13 12:51:03;;;;;;;29.65;16.60;;;10.40;99.90;;;;;;4962953;28;20085;-86
2021/12/13 12:53:43;;;;;;;25.77;14.70;;;10.30;99.90;;;;;;4962978;28;20046;-88
2021/12/13 12:56:09;;;;;;;25.98;15.25;;;10.30;99.90;;;;;;4979162;28;20081;-86
2021/12/13 12:58:44;;;;;;;25.75;14.98;;;10.30;99.90;;;;;;4996999;28;20038;-85
2021/12/13 13:01:22;;;;;;;25.90;15.10;;;10.30;99.90;;;;;;4979335;28;20053;-86
2021/12/13 13:03:48;;;;;;;25.50;14.80;;;10.30;99.90;;;;;;4963067;28;20516;-89
2021/12/13 13:06:20;;;;;;;30.80;14.88;;;10.30;99.90;;;;;;4979064;28;20057;-88
2021/12/13 13:08:49;;;;;;;25.92;14.63;;;10.30;99.90;;;;;;4962940;28;20042;-82
2021/12/13 13:13:51;;;;;;;26.58;14.90;;;10.30;99.90;;;;;;4996223;28;20181;-86
2021/12/13 13:16:19;;;;;;;29.50;15.63;;;10.30;99.90;;;;;;4996596;28;20038;-88
2021/12/13 13:18:46;;;;;;;28.08;14.20;;;10.40;99.90;;;;;;4979541;28;20393;-87
2021/12/13 13:21:12;;;;;;;27.10;15.10;;;10.40;99.90;;;;;;4979985;28;20038;-85
2021/12/13 13:23:46;;;;;;;31.38;15.25;;;10.40;99.90;;;;;;4996727;28;20046;-87
2021/12/13 13:26:14;;;;;;;27.45;14.52;;;10.40;99.90;;;;;;4978952;28;20089;-86
2021/12/13 13:28:53;;;;;;;26.65;14.80;;;10.40;99.90;;;;;;4978795;28;20117;-86
2021/12/13 13:31:27;;;;;;;29.08;15.57;;;10.40;99.90;;;;;;4962785;28;20177;-86
2021/12/13 13:34:00;;;;;;;30.05;16.40;;;10.40;99.90;;;;;;4962982;28;20349;-87
2021/12/13 13:36:32;;;;;;;26.17;15.70;;;10.30;99.90;;;;;;4979756;28;20053;-89
2021/12/13 13:39:17;;;;;;;28.20;15.32;;;10.30;99.90;;;;;;4978063;28;20049;-83
2021/12/13 13:41:47;;;;;;;28.10;15.40;;;10.30;99.90;;;;;;4978626;28;20046;-85
2021/12/13 13:44:18;;;;;;;27.45;14.13;;;10.30;99.90;;;;;;4962595;28;20045;-87
2021/12/13 13:46:44;;;;;;;25.38;15.02;;;10.30;99.90;;;;;;4979573;28;20366;-86
2021/12/13 13:49:19;;;;;;;26.20;15.05;;;10.30;99.90;;;;;;4978378;28;20049;-86
2021/12/13 13:51:46;;;;;;;28.13;15.65;;;10.30;99.90;;;;;;4979107;28;20042;-85
2021/12/13 13:54:13;;;;;;;27.15;14.93;;;10.30;99.90;;;;;;4978583;28;20038;-86
2021/12/13 13:56:46;;;;;;;28.33;15.32;;;10.20;99.90;;;;;;4962501;28;20049;-87
2021/12/13 13:59:15;;;;;;;28.05;15.85;;;10.30;99.90;;;;;;4978594;28;20042;-88
2021/12/13 14:02:00;;;;;;;28.40;15.43;;;10.20;99.90;;;;;;4978574;28;20477;-86
2021/12/13 14:04:36;;;;;;;29.77;15.23;;;10.20;99.90;;;;;;4978993;28;20049;-88
2021/12/13 14:07:04;;;;;;;;;;;10.20;99.90;;;;;;4978506;28;20125;-87
2021/12/13 14:09:38;;;;;;;28.08;14.82;;;10.20;99.90;;;;;;4978005;28;19918;-87
2021/12/13 14:12:21;;;;;;;26.90;14.63;;;10.20;99.90;;;;;;4995312;28;20515;-87
2021/12/13 14:15:11;;;;;;;29.10;14.52;;;10.20;99.90;;;;;;4977977;28;20388;-89
2021/12/13 14:17:47;;;;;;;26.33;15.27;;;10.20;99.90;;;;;;4978024;28;20479;-85
2021/12/13 14:20:48;;;;;;;28.45;15.40;;;10.20;99.90;;;;;;4995647;28;20042;-85
2021/12/13 14:23:14;;;;;;;26.95;13.98;;;10.20;99.90;;;;;;4937629;28;20169;-87
2021/12/13 14:26:00;;;;;;;25.23;14.80;;;10.20;99.90;;;;;;4995885;28;20069;-87
2021/12/13 14:28:42;;;;;;;30.95;15.43;;;10.10;99.90;;;;;;4983526;28;20065;-86
2021/12/13 14:31:16;;;;;;;27.35;15.23;;;10.20;99.90;;;;;;4983678;28;20164;-83
2021/12/13 14:34:07;;;;;;;31.77;15.73;;;10.10;99.90;;;;;;4993941;28;20042;-86
2021/12/13 14:36:35;;;;;;;26.80;15.27;;;10.10;99.90;;;;;;4979901;28;20045;-86
2021/12/13 14:39:22;;;;;;;28.88;15.43;;;10.10;99.90;;;;;;4978753;28;20396;-88
2021/12/13 14:41:52;;;;;;;30.55;14.98;;;10.10;99.90;;;;;;4978186;28;20050;-85
2021/12/13 14:44:24;;;;;;;30.27;15.20;;;10.10;99.90;;;;;;4961822;28;20053;-87
2021/12/13 14:46:59;;;;;;;27.58;15.00;;;10.00;99.90;;;;;;4995553;28;20045;-87
2021/12/13 14:49:29;;;;;;;29.52;16.02;;;10.10;99.90;;;;;;4977775;28;20053;-89
2021/12/13 14:52:18;;;;;;;;;;;;;;;;;;;;;
2021/12/13 14:54:50;;;;;;;27.98;14.98;;;10.10;99.90;;;;;;4977196;28;20089;-89
2021/12/13 14:57:25;;;;;;;30.27;14.50;;;10.00;99.90;;;;;;4994895;28;20477;-86
2021/12/13 14:59:54;;;;;;;;;;;10.00;99.90;;;;;;4995274;28;20082;-87
2021/12/13 15:02:25;;;;;;;31.30;15.35;;;10.00;99.90;;;;;;4977364;28;19974;-86
2021/12/13 15:04:53;;;;;;;32.95;16.02;;;10.00;99.90;;;;;;4962607;28;20052;-89
2021/12/13 15:07:23;;;;;;;27.30;14.77;;;10.00;99.90;;;;;;4978054;28;20050;-88
2021/12/13 15:09:57;;;;;;;28.05;15.23;;;10.00;99.90;;;;;;4961653;28;20042;-87
2021/12/13 15:12:28;;;;;;;28.33;15.25;;;9.90;99.90;;;;;;4977384;28;20042;-88
2021/12/13 15:15:23;;;;;;;30.38;15.40;;;9.90;99.90;;;;;;4977448;28;20080;-88
2021/12/13 15:17:56;;;;;;;28.80;15.30;;;9.90;99.90;;;;;;4959774;28;20389;-87
2021/12/13 15:20:32;;;;;;;27.10;14.38;;;9.90;99.90;;;;;;4994520;28;20080;-88
2021/12/13 15:23:03;;;;;;;28.52;15.45;;;9.80;99.90;;;;;;4937553;29;20059;-87
2021/12/13 15:25:42;;;;;;;29.10;15.73;;;9.80;99.90;;;;;;4922679;29;20138;-88
2021/12/13 15:28:17;;;;;;;27.75;14.48;;;9.80;99.90;;;;;;4921933;29;20077;-88
2021/12/13 15:30:43;;;;;;;30.60;16.10;;;9.80;99.90;;;;;;4922374;29;20098;-88
2021/12/13 15:33:19;;;;;;;26.27;14.38;;;9.80;99.90;;;;;;4937937;29;20051;-87
2021/12/13 15:35:47;;;;;;;28.73;16.10;;;9.70;99.90;;;;;;4921414;29;20051;-86
2021/12/13 15:38:16;;;;;;;25.80;14.98;;;9.70;99.90;;;;;;4920436;29;20058;-88
2021/12/13 15:40:51;;;;;;;26.45;14.15;;;9.70;99.90;;;;;;4935908;29;20051;-88
2021/12/13 15:43:25;;;;;;;29.77;13.88;;;9.70;99.90;;;;;;4936640;29;20102;-88
2021/12/13 15:46:17;;;;;;;28.92;14.57;;;9.60;99.90;;;;;;4920819;29;20078;-88
2021/12/13 15:51:46;;;;;;;26.00;13.07;;;9.60;99.90;;;;;;4936049;29;20473;-90
2021/12/13 15:54:31;;;;;;;25.15;14.07;;;9.60;99.90;;;;;;4960611;28;20050;-89
2021/12/13 15:57:03;;;;;;;29.75;15.20;;;9.60;99.90;;;;;;4975540;28;20492;-88
2021/12/13 15:59:34;;;;;;;28.73;14.30;;;9.60;99.90;;;;;;4960072;28;20052;-87
2021/12/13 16:02:09;;;;;;;26.48;14.35;;;9.60;99.90;;;;;;4976085;28;20097;-87
2021/12/13 16:04:42;;;;;;;26.92;14.38;;;9.60;99.90;;;;;;4979831;28;20038;-87
2021/12/13 16:07:11;;;;;;;25.85;13.30;;;9.50;99.90;;;;;;4979919;28;20052;-89
2021/12/13 16:10:18;;;;;;;26.40;13.45;;;9.60;99.90;;;;;;4963597;28;20381;-90
2021/12/13 16:12:48;;;;;;;27.05;13.68;;;9.60;99.90;;;;;;4863944;29;20057;-89
2021/12/13 16:15:41;;;;;;;24.27;13.18;;;9.60;99.90;;;;;;4913298;29;20051;-90
2021/12/13 16:18:09;;;;;;;23.17;13.07;;;9.60;99.90;;;;;;4905122;29;20490;-87
2021/12/13 16:20:44;;;;;;;23.20;13.32;;;9.60;99.90;;;;;;4920906;29;20080;-87
2021/12/13 16:23:14;;;;;;;26.83;13.88;;;9.60;99.90;;;;;;4904657;29;20123;-89
2021/12/13 16:25:48;;;;;;;26.60;14.63;;;9.60;99.90;;;;;;4920791;29;20119;-89
2021/12/13 16:28:25;;;;;;;25.38;13.98;;;9.50;99.90;;;;;;4905001;29;20388;-90
2021/12/13 16:30:56;;;;;;;27.92;14.10;;;9.50;99.90;;;;;;4904636;29;20135;-87
2021/12/13 16:33:25;;;;;;;28.30;14.75;;;9.50;99.90;;;;;;4936292;29;20060;-90
2021/12/13 16:35:57;;;;;;;24.30;13.27;;;9.50;99.90;;;;;;4920917;29;20051;-88
2021/12/13 16:38:34;;;;;;;25.10;13.50;;;9.50;99.90;;;;;;4975766;28;20134;-91
2021/12/13 16:41:06;;;;;;;24.70;14.15;;;9.50;99.90;;;;;;4978840;28;20096;-88
2021/12/13 16:44:52;;;;;;;;;;;;;;;;;;;;;
2021/12/13 16:47:33;;;;;;;;;;;;;;;;;;;;;
2021/12/13 16:50:16;;;;;;;;;;;;;;;;;;;;;
2021/12/13 16:52:42;;;;;;;27.35;14.60;;;9.40;99.90;;;;;;4919869;29;20057;-88
2021/12/13 16:55:11;;;;;;;26.13;14.23;;;9.40;99.90;;;;;;4919629;29;20519;-88
2021/12/13 16:57:55;;;;;;;;;;;;;;;;;;;;;
2021/12/13 17:00:41;;;;;;;25.60;13.75;;;9.40;99.90;;;;;;4936179;29;20051;-90
2021/12/13 17:03:11;;;;;;;25.30;14.10;;;9.40;99.90;;;;;;4904799;29;20052;-89
2021/12/13 17:06:04;;;;;;;23.77;13.65;;;9.40;99.90;;;;;;4904195;29;20056;-88
2021/12/13 17:08:37;;;;;;;25.95;14.23;;;9.40;99.90;;;;;;4936076;29;20039;-88
2021/12/13 17:11:06;;;;;;;25.50;14.55;;;9.40;99.90;;;;;;4939672;28;20054;-91
2021/12/13 17:13:49;;;;;;;25.63;14.05;;;9.40;99.90;;;;;;4961289;28;20045;-88
2021/12/13 17:16:17;;;;;;;25.35;14.70;;;9.40;99.90;;;;;;4978157;28;20157;-87
2021/12/13 17:19:13;;;;;;;26.85;14.30;;;9.40;99.90;;;;;;4962361;28;20042;-90
2021/12/13 17:21:51;;;;;;;24.48;14.75;;;9.30;99.90;;;;;;4946190;28;20054;-88
2021/12/13 17:24:27;;;;;;;23.63;13.80;;;9.30;99.90;;;;;;4977868;28;20051;-86
2021/12/13 17:27:11;;;;;;;30.63;15.13;;;9.30;99.90;;;;;;4961963;28;20042;-86
2021/12/13 17:29:45;;;;;;;23.77;13.70;;;9.30;99.90;;;;;;4977836;28;20074;-84
2021/12/13 17:32:15;;;;;;;23.85;13.05;;;9.30;99.90;;;;;;4960658;28;20120;-88
2021/12/13 17:34:53;;;;;;;25.95;14.18;;;9.30;99.90;;;;;;4995362;28;20034;-84
2021/12/13 17:37:24;;;;;;;24.98;13.35;;;9.30;99.90;;;;;;4961516;28;20121;-84
2021/12/13 17:40:24;;;;;;;24.05;14.65;;;9.30;99.90;;;;;;4995009;28;20046;-85
2021/12/13 17:43:03;;;;;;;22.90;14.15;;;9.30;99.90;;;;;;4977917;28;20054;-85
2021/12/13 17:45:49;;;;;;;23.42;14.23;;;9.30;99.90;;;;;;4978670;28;20045;-86
2021/12/13 17:48:21;;;;;;;;;;;9.30;99.90;;;;;;4978556;28;20488;-86
2021/12/13 17:50:56;;;;;;;26.58;14.05;;;9.30;99.90;;;;;;4963046;28;19969;-84
2021/12/13 17:53:36;;;;;;;24.13;13.13;;;9.30;99.90;;;;;;4961989;28;20121;-85
2021/12/13 17:56:23;;;;;;;27.38;14.05;;;9.30;99.90;;;;;;4962401;28;20053;-85
2021/12/13 17:59:33;;;;;;;27.30;14.55;;;9.30;99.90;;;;;;4982207;28;20108;-85
2021/12/13 18:02:17;;;;;;;25.48;14.73;;;9.30;99.90;;;;;;4900479;29;20447;-87
2021/12/13 18:04:55;;;;;;;26.58;14.90;;;9.20;99.90;;;;;;4977522;28;20084;-84
2021/12/13 18:07:42;;;;;;;24.38;14.65;;;9.20;99.90;;;;;;4962827;28;20481;-85
2021/12/13 18:10:12;;;;;;;26.30;15.25;;;9.20;99.90;;;;;;4995575;28;20046;-86
2021/12/13 18:12:44;;;;;;;25.65;14.10;;;9.20;99.90;;;;;;4961492;28;20049;-86
2021/12/13 18:15:26;;;;;;;24.42;14.15;;;9.20;99.90;;;;;;4961895;28;20134;-86
2021/12/13 18:18:03;;;;;;;27.30;14.30;;;9.20;99.90;;;;;;4995556;28;20080;-84
2021/12/13 18:20:37;;;;;;;24.63;14.70;;;9.20;99.90;;;;;;4978759;28;20038;-85
2021/12/13 18:23:05;;;;;;;26.20;14.55;;;9.20;99.90;;;;;;4978135;28;20082;-85
2021/12/13 18:25:37;;;;;;;28.20;15.23;;;9.20;99.90;;;;;;4995590;28;20038;-86
2021/12/13 18:28:14;;;;;;;25.48;14.82;;;9.20;99.90;;;;;;4977479;28;20050;-86
2021/12/13 18:30:56;;;;;;;26.83;14.35;;;9.20;99.90;;;;;;4961919;28;20039;-85
2021/12/13 18:33:34;;;;;;;24.73;14.82;;;9.20;99.90;;;;;;4977619;28;20118;-85
2021/12/13 18:36:09;;;;;;;26.05;15.38;;;9.20;99.90;;;;;;4994782;28;20046;-86
2021/12/13 18:38:51;;;;;;;26.00;14.65;;;9.20;99.90;;;;;;4977698;28;20120;-86
2021/12/13 18:41:28;;;;;;;26.58;15.88;;;9.20;99.90;;;;;;4961694;28;20047;-85
2021/12/13 18:44:03;;;;;;;26.13;14.65;;;9.20;99.90;;;;;;4961269;28;20520;-85
2021/12/13 18:46:47;;;;;;;27.55;15.30;;;9.20;99.90;;;;;;4961506;28;20082;-84
2021/12/13 18:49:21;;;;;;;23.95;14.63;;;9.20;99.90;;;;;;4961402;28;20046;-85
2021/12/13 18:51:57;;;;;;;25.92;14.60;;;9.20;99.90;;;;;;4960925;28;20116;-86
2021/12/13 18:54:55;;;;;;;;;;;;;;;;;;;;;
2021/12/13 18:58:17;;;;;;;;;;;;;;;;;;;;;
2021/12/13 19:04:40;;;;;;;29.27;15.35;;;9.10;99.90;;;;;;4916620;29;20051;-85
2021/12/13 19:07:28;;;;;;;27.00;15.52;;;9.20;99.90;;;;;;4946131;28;20054;-85
2021/12/13 19:09:54;;;;;;;25.45;15.35;;;9.10;99.90;;;;;;4960162;28;20351;-88
2021/12/13 19:12:27;;;;;;;24.38;15.65;;;9.10;99.90;;;;;;4976311;28;20050;-86
2021/12/13 19:15:18;;;;;;;26.75;15.45;;;9.10;99.90;;;;;;4959502;28;20112;-87
2021/12/13 19:17:52;;;;;;;23.17;15.02;;;9.10;99.90;;;;;;4959346;28;20074;-87
2021/12/13 19:20:34;;;;;;;26.67;14.88;;;9.10;99.90;;;;;;4959139;28;20089;-87
2021/12/13 19:23:09;;;;;;;25.42;14.82;;;9.10;99.90;;;;;;4993673;28;20052;-86
2021/12/13 19:25:43;;;;;;;26.88;15.15;;;9.10;99.90;;;;;;4977259;28;20116;-87
2021/12/13 19:28:14;;;;;;;26.58;15.75;;;9.10;99.90;;;;;;4977692;28;20049;-86
2021/12/13 19:30:45;;;;;;;25.63;15.43;;;9.10;99.90;;;;;;4960635;28;20049;-86
2021/12/13 19:33:23;;;;;;;23.17;14.77;;;9.00;99.90;;;;;;4960357;28;20054;-88
2021/12/13 19:36:14;;;;;;;24.13;15.32;;;9.00;99.90;;;;;;4976021;28;20046;-87
2021/12/13 19:38:57;;;;;;;26.25;15.57;;;9.10;99.90;;;;;;4993792;28;20389;-88
2021/12/13 19:41:29;;;;;;;23.95;14.50;;;9.00;99.90;;;;;;4960009;28;20485;-88
2021/12/13 19:44:01;;;;;;;23.23;14.73;;;9.10;99.90;;;;;;4993575;28;20069;-86
2021/12/13 19:46:40;;;;;;;24.63;15.60;;;9.10;99.90;;;;;;4959496;28;20493;-88
2021/12/13 19:49:40;;;;;;;23.98;15.23;;;9.00;99.90;;;;;;4960180;28;20042;-86
2021/12/13 19:52:26;;;;;;;31.10;16.00;;;9.00;99.90;;;;;;4971565;28;20058;-85
2021/12/13 19:54:54;;;;;;;;;;;9.00;99.90;;;;;;4976379;28;20046;-87
2021/12/13 19:57:25;;;;;;;27.42;15.32;;;9.00;99.90;;;;;;4975770;28;20283;-88
2021/12/13 19:59:55;;;;;;;26.08;15.40;;;9.00;99.90;;;;;;4958807;28;20053;-87
2021/12/13 20:02:36;;;;;;;23.42;14.80;;;9.00;99.90;;;;;;4974801;28;20042;-87
2021/12/13 20:05:24;;;;;;;25.60;14.45;;;9.00;99.90;;;;;;4974561;28;20042;-88
2021/12/13 20:08:01;;;;;;;23.63;14.60;;;9.00;99.90;;;;;;4992499;28;20046;-85
2021/12/13 20:10:32;;;;;;;26.67;14.90;;;9.00;99.90;;;;;;4958528;28;20048;-86
2021/12/13 20:13:10;;;;;;;27.92;15.65;;;9.00;99.90;;;;;;4974773;28;20413;-86
2021/12/13 20:16:02;;;;;;;26.63;15.07;;;9.00;99.90;;;;;;4958224;28;20141;-89
2021/12/13 20:18:52;;;;;;;31.30;15.90;;;9.00;99.90;;;;;;4974529;28;20038;-85
2021/12/13 20:21:28;;;;;;;21.75;14.43;;;9.00;99.90;;;;;;4975240;28;20054;-86
2021/12/13 20:24:02;;;;;;;20.60;13.75;;;8.90;99.90;;;;;;4992413;28;20560;-88
2021/12/13 20:26:35;;;;;;;26.75;15.75;;;8.90;99.90;;;;;;4958550;28;20472;-88
2021/12/13 20:29:15;;;;;;;23.77;14.98;;;8.90;99.90;;;;;;4974895;28;20149;-88
2021/12/13 20:32:05;;;;;;;24.25;14.55;;;8.90;99.90;;;;;;4974419;28;20104;-86
2021/12/13 20:34:37;;;;;;;24.25;15.15;;;9.00;99.90;;;;;;4974723;28;20057;-85
2021/12/13 20:37:13;;;;;;;25.20;15.57;;;9.00;99.90;;;;;;4992148;28;20046;-85
2021/12/13 20:39:52;;;;;;;23.48;14.88;;;8.90;99.90;;;;;;4974442;28;20038;-90
2021/12/13 20:42:24;;;;;;;23.35;14.70;;;8.90;99.90;;;;;;4974229;28;20117;-87
2021/12/13 20:44:56;;;;;;;24.40;14.70;;;8.90;99.90;;;;;;4974361;28;20038;-88
2021/12/13 20:47:30;;;;;;;25.40;14.73;;;8.90;99.90;;;;;;4992132;28;20042;-86
2021/12/13 20:49:57;;;;;;;24.02;15.15;;;9.00;99.90;;;;;;4976835;28;20318;-88
2021/12/13 20:52:29;;;;;;;25.27;14.43;;;8.90;99.90;;;;;;4978059;28;20086;-87
2021/12/13 20:55:23;;;;;;;25.98;14.75;;;8.90;99.90;;;;;;4978682;28;20064;-86
2021/12/13 20:57:54;;;;;;;24.15;14.50;;;8.90;99.90;;;;;;4993244;28;20054;-88
2021/12/13 21:00:32;;;;;;;29.88;15.57;;;8.90;99.90;;;;;;4962976;28;20074;-88
2021/12/13 21:03:05;;;;;;;27.67;13.90;;;8.90;99.90;;;;;;4996372;28;20064;-85
2021/12/13 21:05:38;;;;;;;23.67;14.23;;;8.90;99.90;;;;;;4995855;28;20081;-87
2021/12/13 21:08:11;;;;;;;22.33;14.52;;;8.90;99.90;;;;;;4996297;28;20096;-86
2021/12/13 21:10:51;;;;;;;26.73;15.68;;;8.90;99.90;;;;;;4978523;28;20115;-87
2021/12/13 21:13:24;;;;;;;24.33;14.40;;;8.90;99.90;;;;;;4978019;28;20034;-88
2021/12/13 21:16:06;;;;;;;24.67;14.60;;;8.90;99.90;;;;;;4978279;28;20475;-87
2021/12/13 21:18:39;;;;;;;23.77;13.70;;;8.90;99.90;;;;;;4978294;28;20047;-86
2021/12/13 21:21:29;;;;;;;26.25;14.65;;;8.90;99.90;;;;;;4978395;28;20042;-89
2021/12/13 21:24:01;;;;;;;25.75;14.40;;;8.90;99.90;;;;;;4977975;28;20477;-87
2021/12/13 21:26:46;;;;;;;26.90;14.68;;;8.90;99.90;;;;;;4995641;28;20124;-88
2021/12/13 21:29:15;;;;;;;23.42;14.27;;;8.90;99.90;;;;;;4995858;28;20378;-90
2021/12/13 21:31:47;;;;;;;25.25;14.18;;;8.80;99.90;;;;;;4996237;28;20117;-86
2021/12/13 21:34:34;;;;;;;24.27;14.27;;;8.80;99.90;;;;;;4962837;28;20093;-86
2021/12/13 21:39:48;;;;;;;23.50;13.85;;;8.80;99.90;;;;;;4996480;28;20042;-87
2021/12/13 21:42:29;;;;;;;23.60;14.25;;;8.80;99.90;;;;;;4978839;28;20435;-87
2021/12/13 21:45:06;;;;;;;23.05;14.38;;;8.90;99.90;;;;;;4996614;28;20089;-86
2021/12/13 21:47:46;;;;;;;22.73;14.35;;;8.80;99.90;;;;;;4977974;28;20121;-87
2021/12/13 21:50:24;;;;;;;22.80;13.60;;;8.80;99.90;;;;;;4962510;28;20551;-86
2021/12/13 21:52:59;;;;;;;24.98;14.93;;;8.80;99.90;;;;;;4963278;28;20042;-86
2021/12/13 21:55:34;;;;;;;23.58;14.07;;;8.80;99.90;;;;;;4962529;28;20053;-85
2021/12/13 21:58:17;;;;;;;24.35;15.27;;;8.80;99.90;;;;;;4962850;28;20050;-87
2021/12/13 22:01:25;;;;;;;28.42;15.45;;;8.80;99.90;;;;;;4978055;28;20050;-86
2021/12/13 22:04:05;;;;;;;24.40;13.55;;;8.80;99.90;;;;;;4962045;28;20132;-87
2021/12/13 22:06:41;;;;;;;23.98;14.70;;;8.80;99.90;;;;;;4977439;28;20481;-88
2021/12/13 22:09:21;;;;;;;27.60;14.27;;;8.80;99.90;;;;;;4977220;28;20050;-86
2021/12/13 22:11:52;;;;;;;25.70;14.73;;;8.80;99.90;;;;;;4977297;28;20515;-85
2021/12/13 22:14:23;;;;;;;22.30;14.68;;;8.80;99.90;;;;;;4961605;28;20046;-85
2021/12/13 22:17:00;;;;;;;25.30;14.75;;;8.80;99.90;;;;;;4961527;28;20133;-86
2021/12/13 22:19:33;;;;;;;23.40;14.02;;;8.70;99.90;;;;;;4978233;28;20072;-86
2021/12/13 22:22:01;;;;;;;24.95;14.85;;;8.80;99.90;;;;;;4977786;28;20046;-88
2021/12/13 22:24:33;;;;;;;26.15;14.18;;;8.80;99.90;;;;;;4962139;28;20495;-86
2021/12/13 22:27:22;;;;;;;29.33;15.40;;;8.80;99.90;;;;;;4962636;28;20050;-88
2021/12/13 22:29:52;;;;;;;24.90;14.38;;;8.80;99.90;;;;;;4978781;28;20042;-90
2021/12/13 22:32:24;;;;;;;25.63;14.38;;;8.70;99.90;;;;;;4978772;28;20097;-89
2021/12/13 22:35:04;;;;;;;22.80;13.73;;;8.70;99.90;;;;;;4962016;28;20546;-87
2021/12/13 22:38:07;;;;;;;29.70;15.32;;;8.80;99.90;;;;;;4962697;28;20105;-88
2021/12/13 22:40:40;;;;;;;24.90;14.45;;;8.70;99.90;;;;;;4884261;29;20055;-88
2021/12/13 22:44:20;;;;;;;;;;;;;;;;;;;;;
2021/12/13 22:47:37;;;;;;;27.27;13.45;;;8.70;99.90;;;;;;4794898;29;20586;-88
2021/12/13 22:50:09;;;;;;;25.10;13.63;;;8.70;99.90;;;;;;4799547;29;20146;-88
2021/12/13 22:52:41;;;;;;;26.65;14.30;;;8.70;99.90;;;;;;4881967;29;20079;-88
2021/12/13 22:55:20;;;;;;;23.38;14.02;;;8.70;99.90;;;;;;4916357;29;20036;-89
2021/12/13 22:57:48;;;;;;;21.85;14.02;;;8.70;99.90;;;;;;4884462;29;20054;-86
2021/12/13 23:00:42;;;;;;;23.80;13.57;;;8.70;99.90;;;;;;4900211;29;20068;-89
2021/12/13 23:03:12;;;;;;;24.40;13.18;;;8.70;99.90;;;;;;4900834;29;20071;-88
2021/12/13 23:06:08;;;;;;;;;;;;;;;;;;;;;
2021/12/13 23:08:39;;;;;;;21.88;13.95;;;8.70;99.90;;;;;;4974234;28;20501;-87
